sensor_id;sensor_type;location;lat;lon;timestamp;temperature;humidity
55634;DHT22;41504;53.162;6.788;2022-10-19T00:03:33;11.80;88.10
55634;DHT22;41504;53.162;6.788;2022-10-19T00:06:25;11.80;88.10
55634;DHT22;41504;53.162;6.788;2022-10-19T00:08:57;11.80;87.90
55634;DHT22;41504;53.162;6.788;2022-10-19T00:11:23;11.80;88.10
55634;DHT22;41504;53.162;6.788;2022-10-19T00:13:49;11.80;88.00
55634;DHT22;41504;53.162;6.788;2022-10-19T00:16:16;11.80;88.10
55634;DHT22;41504;53.162;6.788;2022-10-19T00:18:43;11.80;88.00
55634;DHT22;41504;53.162;6.788;2022-10-19T00:21:12;11.80;88.00
55634;DHT22;41504;53.162;6.788;2022-10-19T00:23:38;11.80;87.90
55634;DHT22;41504;53.162;6.788;2022-10-19T00:26:04;11.80;87.90
55634;DHT22;41504;53.162;6.788;2022-10-19T00:28:30;11.80;87.90
55634;DHT22;41504;53.162;6.788;2022-10-19T00:30:56;11.70;87.90
55634;DHT22;41504;53.162;6.788;2022-10-19T00:33:29;11.70;88.60
55634;DHT22;41504;53.162;6.788;2022-10-19T00:35:54;11.70;88.30
55634;DHT22;41504;53.162;6.788;2022-10-19T00:38:21;11.70;88.20
55634;DHT22;41504;53.162;6.788;2022-10-19T00:46:56;11.80;88.10
55634;DHT22;41504;53.162;6.788;2022-10-19T00:49:27;11.80;88.20
55634;DHT22;41504;53.162;6.788;2022-10-19T00:52:06;11.80;88.10
55634;DHT22;41504;53.162;6.788;2022-10-19T00:54:34;11.90;88.00
55634;DHT22;41504;53.162;6.788;2022-10-19T00:57:02;11.90;87.80
55634;DHT22;41504;53.162;6.788;2022-10-19T00:59:29;11.90;87.70
55634;DHT22;41504;53.162;6.788;2022-10-19T01:01:57;11.80;87.80
55634;DHT22;41504;53.162;6.788;2022-10-19T01:04:27;11.80;87.80
55634;DHT22;41504;53.162;6.788;2022-10-19T01:06:54;11.80;87.80
55634;DHT22;41504;53.162;6.788;2022-10-19T01:09:22;11.80;87.80
55634;DHT22;41504;53.162;6.788;2022-10-19T01:12:00;11.80;87.70
55634;DHT22;41504;53.162;6.788;2022-10-19T01:23:19;11.70;87.60
55634;DHT22;41504;53.162;6.788;2022-10-19T01:31:47;11.70;87.60
55634;DHT22;41504;53.162;6.788;2022-10-19T01:34:31;11.70;87.60
55634;DHT22;41504;53.162;6.788;2022-10-19T01:40:32;11.80;87.60
55634;DHT22;41504;53.162;6.788;2022-10-19T01:45:37;11.80;87.50
55634;DHT22;41504;53.162;6.788;2022-10-19T01:48:11;11.80;87.40
55634;DHT22;41504;53.162;6.788;2022-10-19T01:53:14;11.80;86.90
55634;DHT22;41504;53.162;6.788;2022-10-19T01:55:44;11.80;87.10
55634;DHT22;41504;53.162;6.788;2022-10-19T01:58:15;11.80;87.20
55634;DHT22;41504;53.162;6.788;2022-10-19T02:00:43;11.80;86.90
55634;DHT22;41504;53.162;6.788;2022-10-19T02:03:11;11.80;86.80
55634;DHT22;41504;53.162;6.788;2022-10-19T02:05:38;11.80;86.90
55634;DHT22;41504;53.162;6.788;2022-10-19T02:08:10;11.90;86.90
55634;DHT22;41504;53.162;6.788;2022-10-19T02:10:37;11.90;86.90
55634;DHT22;41504;53.162;6.788;2022-10-19T02:13:05;11.90;87.00
55634;DHT22;41504;53.162;6.788;2022-10-19T02:15:34;11.90;86.60
55634;DHT22;41504;53.162;6.788;2022-10-19T02:18:02;11.90;85.40
55634;DHT22;41504;53.162;6.788;2022-10-19T02:20:29;11.90;85.40
55634;DHT22;41504;53.162;6.788;2022-10-19T02:22:55;11.90;85.60
55634;DHT22;41504;53.162;6.788;2022-10-19T02:25:22;11.90;85.80
55634;DHT22;41504;53.162;6.788;2022-10-19T02:27:48;11.90;85.90
55634;DHT22;41504;53.162;6.788;2022-10-19T02:30:16;11.90;85.60
55634;DHT22;41504;53.162;6.788;2022-10-19T02:32:44;11.90;85.00
55634;DHT22;41504;53.162;6.788;2022-10-19T02:35:11;11.90;85.20
55634;DHT22;41504;53.162;6.788;2022-10-19T02:37:39;11.90;85.40
55634;DHT22;41504;53.162;6.788;2022-10-19T02:40:06;11.90;85.50
55634;DHT22;41504;53.162;6.788;2022-10-19T02:42:42;11.90;85.40
55634;DHT22;41504;53.162;6.788;2022-10-19T02:45:25;11.90;85.20
55634;DHT22;41504;53.162;6.788;2022-10-19T02:48:04;12.00;85.10
55634;DHT22;41504;53.162;6.788;2022-10-19T02:50:30;11.90;85.00
55634;DHT22;41504;53.162;6.788;2022-10-19T02:52:58;11.90;84.70
55634;DHT22;41504;53.162;6.788;2022-10-19T02:55:24;11.90;84.70
55634;DHT22;41504;53.162;6.788;2022-10-19T02:57:50;11.80;84.80
55634;DHT22;41504;53.162;6.788;2022-10-19T03:00:15;11.80;84.90
55634;DHT22;41504;53.162;6.788;2022-10-19T03:02:41;11.80;85.10
55634;DHT22;41504;53.162;6.788;2022-10-19T03:05:08;11.80;85.30
55634;DHT22;41504;53.162;6.788;2022-10-19T03:07:33;11.70;85.10
55634;DHT22;41504;53.162;6.788;2022-10-19T03:09:59;11.70;85.30
55634;DHT22;41504;53.162;6.788;2022-10-19T03:12:31;11.70;85.40
55634;DHT22;41504;53.162;6.788;2022-10-19T03:14:57;11.60;85.10
55634;DHT22;41504;53.162;6.788;2022-10-19T03:17:22;11.60;85.20
55634;DHT22;41504;53.162;6.788;2022-10-19T03:19:48;11.50;85.10
55634;DHT22;41504;53.162;6.788;2022-10-19T03:22:14;11.50;85.30
55634;DHT22;41504;53.162;6.788;2022-10-19T03:24:39;11.50;85.40
55634;DHT22;41504;53.162;6.788;2022-10-19T03:27:05;11.40;85.40
55634;DHT22;41504;53.162;6.788;2022-10-19T03:29:31;11.40;85.40
55634;DHT22;41504;53.162;6.788;2022-10-19T03:31:57;11.40;85.50
55634;DHT22;41504;53.162;6.788;2022-10-19T03:34:22;11.30;85.50
55634;DHT22;41504;53.162;6.788;2022-10-19T03:36:48;11.30;85.60
55634;DHT22;41504;53.162;6.788;2022-10-19T03:39:15;11.20;85.70
55634;DHT22;41504;53.162;6.788;2022-10-19T03:41:41;11.30;85.90
55634;DHT22;41504;53.162;6.788;2022-10-19T03:44:08;11.30;85.90
55634;DHT22;41504;53.162;6.788;2022-10-19T03:46:34;11.20;86.10
55634;DHT22;41504;53.162;6.788;2022-10-19T03:49:01;11.20;86.00
55634;DHT22;41504;53.162;6.788;2022-10-19T03:51:28;11.10;85.90
55634;DHT22;41504;53.162;6.788;2022-10-19T03:53:57;11.10;85.70
55634;DHT22;41504;53.162;6.788;2022-10-19T03:56:27;11.30;85.70
55634;DHT22;41504;53.162;6.788;2022-10-19T03:58:54;11.20;85.50
55634;DHT22;41504;53.162;6.788;2022-10-19T04:01:35;11.10;85.20
55634;DHT22;41504;53.162;6.788;2022-10-19T04:04:05;11.10;85.10
55634;DHT22;41504;53.162;6.788;2022-10-19T04:06:37;11.10;85.10
55634;DHT22;41504;53.162;6.788;2022-10-19T04:09:05;11.10;85.10
55634;DHT22;41504;53.162;6.788;2022-10-19T04:11:34;11.20;85.20
55634;DHT22;41504;53.162;6.788;2022-10-19T04:14:00;11.20;85.20
55634;DHT22;41504;53.162;6.788;2022-10-19T04:16:28;11.20;85.20
55634;DHT22;41504;53.162;6.788;2022-10-19T04:18:54;11.20;85.20
55634;DHT22;41504;53.162;6.788;2022-10-19T04:21:35;11.20;85.10
55634;DHT22;41504;53.162;6.788;2022-10-19T04:24:03;11.20;85.00
55634;DHT22;41504;53.162;6.788;2022-10-19T04:26:30;11.20;85.20
55634;DHT22;41504;53.162;6.788;2022-10-19T04:28:56;11.20;85.00
55634;DHT22;41504;53.162;6.788;2022-10-19T04:31:26;11.20;85.10
55634;DHT22;41504;53.162;6.788;2022-10-19T04:33:52;11.20;85.20
55634;DHT22;41504;53.162;6.788;2022-10-19T04:36:18;11.10;85.10
55634;DHT22;41504;53.162;6.788;2022-10-19T04:38:44;11.10;85.20
55634;DHT22;41504;53.162;6.788;2022-10-19T04:41:13;11.20;85.20
55634;DHT22;41504;53.162;6.788;2022-10-19T04:43:39;11.10;85.00
55634;DHT22;41504;53.162;6.788;2022-10-19T04:46:16;11.10;85.00
55634;DHT22;41504;53.162;6.788;2022-10-19T04:48:42;11.10;84.60
55634;DHT22;41504;53.162;6.788;2022-10-19T04:51:09;11.20;84.70
55634;DHT22;41504;53.162;6.788;2022-10-19T04:53:36;11.10;84.40
55634;DHT22;41504;53.162;6.788;2022-10-19T04:56:29;11.10;84.40
55634;DHT22;41504;53.162;6.788;2022-10-19T04:58:58;11.20;84.30
55634;DHT22;41504;53.162;6.788;2022-10-19T05:01:26;11.20;84.40
55634;DHT22;41504;53.162;6.788;2022-10-19T05:03:54;11.20;84.30
55634;DHT22;41504;53.162;6.788;2022-10-19T05:06:20;11.10;84.10
55634;DHT22;41504;53.162;6.788;2022-10-19T05:08:47;11.20;84.10
55634;DHT22;41504;53.162;6.788;2022-10-19T05:11:14;11.20;84.00
55634;DHT22;41504;53.162;6.788;2022-10-19T05:13:41;11.20;84.00
55634;DHT22;41504;53.162;6.788;2022-10-19T05:16:10;11.20;83.90
55634;DHT22;41504;53.162;6.788;2022-10-19T05:18:38;11.20;83.80
55634;DHT22;41504;53.162;6.788;2022-10-19T05:21:09;11.20;83.70
55634;DHT22;41504;53.162;6.788;2022-10-19T05:23:36;11.30;83.60
55634;DHT22;41504;53.162;6.788;2022-10-19T05:26:09;11.20;83.40
55634;DHT22;41504;53.162;6.788;2022-10-19T05:28:36;11.30;83.30
55634;DHT22;41504;53.162;6.788;2022-10-19T05:31:10;11.30;83.30
55634;DHT22;41504;53.162;6.788;2022-10-19T05:33:37;11.30;83.30
55634;DHT22;41504;53.162;6.788;2022-10-19T05:36:14;11.20;83.30
55634;DHT22;41504;53.162;6.788;2022-10-19T05:38:40;11.30;83.30
55634;DHT22;41504;53.162;6.788;2022-10-19T05:41:05;11.20;83.30
55634;DHT22;41504;53.162;6.788;2022-10-19T05:43:31;11.20;83.30
55634;DHT22;41504;53.162;6.788;2022-10-19T05:46:02;11.30;83.20
55634;DHT22;41504;53.162;6.788;2022-10-19T05:48:28;11.30;83.10
55634;DHT22;41504;53.162;6.788;2022-10-19T05:50:59;11.30;83.10
55634;DHT22;41504;53.162;6.788;2022-10-19T05:53:25;11.30;83.20
55634;DHT22;41504;53.162;6.788;2022-10-19T05:55:50;11.30;83.30
55634;DHT22;41504;53.162;6.788;2022-10-19T05:58:16;11.30;83.40
55634;DHT22;41504;53.162;6.788;2022-10-19T06:00:42;11.40;83.10
55634;DHT22;41504;53.162;6.788;2022-10-19T06:03:07;11.40;83.20
55634;DHT22;41504;53.162;6.788;2022-10-19T06:05:35;11.40;83.20
55634;DHT22;41504;53.162;6.788;2022-10-19T17:05:54;11.80;77.30
55634;DHT22;41504;53.162;6.788;2022-10-19T17:08:20;11.80;77.40
55634;DHT22;41504;53.162;6.788;2022-10-19T17:10:46;11.80;78.20
55634;DHT22;41504;53.162;6.788;2022-10-19T17:13:12;11.70;78.80
55634;DHT22;41504;53.162;6.788;2022-10-19T17:15:38;11.70;79.50
55634;DHT22;41504;53.162;6.788;2022-10-19T17:18:04;11.80;80.00
55634;DHT22;41504;53.162;6.788;2022-10-19T17:20:31;11.70;80.40
55634;DHT22;41504;53.162;6.788;2022-10-19T17:22:57;11.70;80.80
55634;DHT22;41504;53.162;6.788;2022-10-19T17:25:23;11.70;81.10
55634;DHT22;41504;53.162;6.788;2022-10-19T17:27:50;11.70;81.40
55634;DHT22;41504;53.162;6.788;2022-10-19T17:30:16;11.60;81.60
55634;DHT22;41504;53.162;6.788;2022-10-19T17:32:42;11.60;81.90
55634;DHT22;41504;53.162;6.788;2022-10-19T17:35:07;11.60;82.00
55634;DHT22;41504;53.162;6.788;2022-10-19T17:37:33;11.60;82.10
55634;DHT22;41504;53.162;6.788;2022-10-19T17:39:59;11.50;82.40
55634;DHT22;41504;53.162;6.788;2022-10-19T17:42:25;11.50;82.40
55634;DHT22;41504;53.162;6.788;2022-10-19T17:44:52;11.50;82.30
55634;DHT22;41504;53.162;6.788;2022-10-19T17:47:18;11.50;82.40
55634;DHT22;41504;53.162;6.788;2022-10-19T17:49:44;11.50;82.40
55634;DHT22;41504;53.162;6.788;2022-10-19T17:52:10;11.50;82.40
55634;DHT22;41504;53.162;6.788;2022-10-19T17:54:35;11.50;82.20
55634;DHT22;41504;53.162;6.788;2022-10-19T17:57:01;11.50;82.10
55634;DHT22;41504;53.162;6.788;2022-10-19T17:59:28;11.50;82.00
55634;DHT22;41504;53.162;6.788;2022-10-19T18:01:53;11.50;82.10
55634;DHT22;41504;53.162;6.788;2022-10-19T18:04:19;11.50;82.00
55634;DHT22;41504;53.162;6.788;2022-10-19T18:06:45;11.50;81.90
55634;DHT22;41504;53.162;6.788;2022-10-19T18:09:11;11.50;82.00
55634;DHT22;41504;53.162;6.788;2022-10-19T18:11:42;11.40;81.90
55634;DHT22;41504;53.162;6.788;2022-10-19T18:14:11;11.40;82.00
55634;DHT22;41504;53.162;6.788;2022-10-19T18:16:43;11.40;82.00
55634;DHT22;41504;53.162;6.788;2022-10-19T18:19:10;11.40;82.10
55634;DHT22;41504;53.162;6.788;2022-10-19T18:21:40;11.40;82.10
55634;DHT22;41504;53.162;6.788;2022-10-19T18:24:10;11.40;82.10
55634;DHT22;41504;53.162;6.788;2022-10-19T18:26:38;11.30;82.10
55634;DHT22;41504;53.162;6.788;2022-10-19T18:29:30;11.30;82.10
55634;DHT22;41504;53.162;6.788;2022-10-19T18:31:56;11.30;81.80
55634;DHT22;41504;53.162;6.788;2022-10-19T18:34:23;11.30;82.20
55634;DHT22;41504;53.162;6.788;2022-10-19T18:36:50;11.20;82.30
55634;DHT22;41504;53.162;6.788;2022-10-19T18:39:16;11.20;82.30
55634;DHT22;41504;53.162;6.788;2022-10-19T18:41:42;11.20;82.30
55634;DHT22;41504;53.162;6.788;2022-10-19T18:44:11;11.20;82.30
55634;DHT22;41504;53.162;6.788;2022-10-19T18:46:37;11.20;82.50
55634;DHT22;41504;53.162;6.788;2022-10-19T18:49:05;11.10;82.40
55634;DHT22;41504;53.162;6.788;2022-10-19T18:51:31;11.10;82.50
55634;DHT22;41504;53.162;6.788;2022-10-19T18:53:58;11.10;82.50
55634;DHT22;41504;53.162;6.788;2022-10-19T18:56:25;11.10;82.50
55634;DHT22;41504;53.162;6.788;2022-10-19T18:58:51;11.10;82.50
55634;DHT22;41504;53.162;6.788;2022-10-19T19:01:25;11.10;82.50
55634;DHT22;41504;53.162;6.788;2022-10-19T19:03:56;11.00;82.50
55634;DHT22;41504;53.162;6.788;2022-10-19T19:06:27;11.00;82.60
55634;DHT22;41504;53.162;6.788;2022-10-19T19:08:59;11.00;82.60
55634;DHT22;41504;53.162;6.788;2022-10-19T19:11:30;10.90;82.50
55634;DHT22;41504;53.162;6.788;2022-10-19T19:14:01;10.90;82.60
55634;DHT22;41504;53.162;6.788;2022-10-19T19:16:33;10.90;82.70
55634;DHT22;41504;53.162;6.788;2022-10-19T19:18:59;10.80;82.60
55634;DHT22;41504;53.162;6.788;2022-10-19T19:21:27;10.90;82.60
55634;DHT22;41504;53.162;6.788;2022-10-19T19:23:54;10.80;82.50
55634;DHT22;41504;53.162;6.788;2022-10-19T19:26:22;10.90;82.60
55634;DHT22;41504;53.162;6.788;2022-10-19T19:28:48;10.80;82.40
55634;DHT22;41504;53.162;6.788;2022-10-19T19:31:14;10.80;82.40
55634;DHT22;41504;53.162;6.788;2022-10-19T19:33:42;10.80;82.40
55634;DHT22;41504;53.162;6.788;2022-10-19T19:36:08;10.70;82.40
55634;DHT22;41504;53.162;6.788;2022-10-19T19:38:35;10.70;82.50
55634;DHT22;41504;53.162;6.788;2022-10-19T19:41:06;10.70;82.50
55634;DHT22;41504;53.162;6.788;2022-10-19T19:43:33;10.60;82.50
55634;DHT22;41504;53.162;6.788;2022-10-19T19:46:03;10.60;82.60
55634;DHT22;41504;53.162;6.788;2022-10-19T19:48:29;10.60;82.70
55634;DHT22;41504;53.162;6.788;2022-10-19T19:50:54;10.60;82.50
55634;DHT22;41504;53.162;6.788;2022-10-19T19:53:20;10.60;82.60
55634;DHT22;41504;53.162;6.788;2022-10-19T19:55:48;10.60;82.60
55634;DHT22;41504;53.162;6.788;2022-10-19T19:58:15;10.60;82.60
55634;DHT22;41504;53.162;6.788;2022-10-19T20:00:41;10.50;82.70
55634;DHT22;41504;53.162;6.788;2022-10-19T20:03:07;10.50;82.70
55634;DHT22;41504;53.162;6.788;2022-10-19T20:05:33;10.50;82.70
55634;DHT22;41504;53.162;6.788;2022-10-19T20:07:59;10.50;82.70
55634;DHT22;41504;53.162;6.788;2022-10-19T20:10:25;10.50;82.80
55634;DHT22;41504;53.162;6.788;2022-10-19T20:12:51;10.40;82.90
55634;DHT22;41504;53.162;6.788;2022-10-19T20:15:17;10.30;82.90
55634;DHT22;41504;53.162;6.788;2022-10-19T20:17:43;10.30;83.00
55634;DHT22;41504;53.162;6.788;2022-10-19T20:20:11;10.30;83.10
55634;DHT22;41504;53.162;6.788;2022-10-19T20:22:37;10.30;83.10
55634;DHT22;41504;53.162;6.788;2022-10-19T20:25:04;10.30;83.10
55634;DHT22;41504;53.162;6.788;2022-10-19T20:27:32;10.20;83.00
55634;DHT22;41504;53.162;6.788;2022-10-19T20:29:58;10.20;83.20
55634;DHT22;41504;53.162;6.788;2022-10-19T20:32:25;10.20;83.20
55634;DHT22;41504;53.162;6.788;2022-10-19T20:34:54;10.20;83.20
55634;DHT22;41504;53.162;6.788;2022-10-19T20:37:20;10.10;83.20
55634;DHT22;41504;53.162;6.788;2022-10-19T20:39:47;10.10;83.20
55634;DHT22;41504;53.162;6.788;2022-10-19T20:42:13;10.00;83.20
55634;DHT22;41504;53.162;6.788;2022-10-19T20:44:39;10.00;83.30
55634;DHT22;41504;53.162;6.788;2022-10-19T20:47:05;10.00;83.40
55634;DHT22;41504;53.162;6.788;2022-10-19T20:49:34;9.90;83.30
55634;DHT22;41504;53.162;6.788;2022-10-19T20:52:00;9.90;83.40
55634;DHT22;41504;53.162;6.788;2022-10-19T20:54:25;9.90;83.40
55634;DHT22;41504;53.162;6.788;2022-10-19T20:56:51;9.90;83.40
55634;DHT22;41504;53.162;6.788;2022-10-19T20:59:20;9.80;83.30
55634;DHT22;41504;53.162;6.788;2022-10-19T21:01:49;9.80;83.30
55634;DHT22;41504;53.162;6.788;2022-10-19T21:04:15;9.70;83.40
55634;DHT22;41504;53.162;6.788;2022-10-19T21:06:45;9.70;83.40
55634;DHT22;41504;53.162;6.788;2022-10-19T21:09:13;9.70;83.50
55634;DHT22;41504;53.162;6.788;2022-10-19T21:11:40;9.60;83.50
55634;DHT22;41504;53.162;6.788;2022-10-19T21:14:18;9.60;83.50
55634;DHT22;41504;53.162;6.788;2022-10-19T21:16:44;9.60;83.60
55634;DHT22;41504;53.162;6.788;2022-10-19T21:19:13;9.60;83.50
55634;DHT22;41504;53.162;6.788;2022-10-19T21:21:42;9.50;83.50
55634;DHT22;41504;53.162;6.788;2022-10-19T21:24:17;9.50;83.60
55634;DHT22;41504;53.162;6.788;2022-10-19T21:26:43;9.50;83.60
55634;DHT22;41504;53.162;6.788;2022-10-19T21:29:10;9.50;83.70
55634;DHT22;41504;53.162;6.788;2022-10-19T21:31:38;9.50;83.60
55634;DHT22;41504;53.162;6.788;2022-10-19T21:34:07;9.50;83.70
55634;DHT22;41504;53.162;6.788;2022-10-19T21:36:33;9.50;83.70
55634;DHT22;41504;53.162;6.788;2022-10-19T21:38:59;9.50;83.70
55634;DHT22;41504;53.162;6.788;2022-10-19T21:41:24;9.40;83.60
55634;DHT22;41504;53.162;6.788;2022-10-19T21:43:50;9.40;83.70
55634;DHT22;41504;53.162;6.788;2022-10-19T21:46:18;9.40;83.80
55634;DHT22;41504;53.162;6.788;2022-10-19T21:48:45;9.40;83.70
55634;DHT22;41504;53.162;6.788;2022-10-19T21:53:49;9.40;83.70
55634;DHT22;41504;53.162;6.788;2022-10-19T21:56:15;9.30;83.70
55634;DHT22;41504;53.162;6.788;2022-10-19T21:58:49;9.30;83.60
55634;DHT22;41504;53.162;6.788;2022-10-19T22:01:16;9.30;83.70
55634;DHT22;41504;53.162;6.788;2022-10-19T22:03:42;9.30;83.70
55634;DHT22;41504;53.162;6.788;2022-10-19T22:06:08;9.30;83.70
55634;DHT22;41504;53.162;6.788;2022-10-19T22:08:34;9.20;83.80
55634;DHT22;41504;53.162;6.788;2022-10-19T22:11:08;9.20;83.90
55634;DHT22;41504;53.162;6.788;2022-10-19T22:13:34;9.10;83.90
55634;DHT22;41504;53.162;6.788;2022-10-19T22:16:10;9.10;83.90
55634;DHT22;41504;53.162;6.788;2022-10-19T22:18:40;9.10;83.90
55634;DHT22;41504;53.162;6.788;2022-10-19T22:21:11;9.10;84.10
55634;DHT22;41504;53.162;6.788;2022-10-19T22:23:38;9.10;84.10
55634;DHT22;41504;53.162;6.788;2022-10-19T22:26:15;9.10;84.10
55634;DHT22;41504;53.162;6.788;2022-10-19T22:28:41;9.10;84.10
55634;DHT22;41504;53.162;6.788;2022-10-19T22:31:08;9.00;84.10
55634;DHT22;41504;53.162;6.788;2022-10-19T22:33:34;9.00;84.10
55634;DHT22;41504;53.162;6.788;2022-10-19T22:36:07;9.00;84.20
55634;DHT22;41504;53.162;6.788;2022-10-19T22:38:34;8.90;84.10
55634;DHT22;41504;53.162;6.788;2022-10-19T22:44:22;8.90;84.30
55634;DHT22;41504;53.162;6.788;2022-10-19T22:46:47;8.80;84.90
55634;DHT22;41504;53.162;6.788;2022-10-19T22:49:13;8.80;84.40
55634;DHT22;41504;53.162;6.788;2022-10-19T22:51:39;8.80;84.40
55634;DHT22;41504;53.162;6.788;2022-10-19T22:54:04;8.80;84.50
55634;DHT22;41504;53.162;6.788;2022-10-19T22:56:30;8.80;84.50
55634;DHT22;41504;53.162;6.788;2022-10-19T22:59:01;8.80;84.50
55634;DHT22;41504;53.162;6.788;2022-10-19T23:01:30;8.80;85.10
55634;DHT22;41504;53.162;6.788;2022-10-19T23:03:59;8.80;84.50
55634;DHT22;41504;53.162;6.788;2022-10-19T23:06:25;8.80;84.50
55634;DHT22;41504;53.162;6.788;2022-10-19T23:08:51;8.80;84.50
55634;DHT22;41504;53.162;6.788;2022-10-19T23:11:18;8.80;84.60
55634;DHT22;41504;53.162;6.788;2022-10-19T23:13:44;8.70;84.60
55634;DHT22;41504;53.162;6.788;2022-10-19T23:16:10;8.70;85.20
55634;DHT22;41504;53.162;6.788;2022-10-19T23:18:38;8.70;84.70
55634;DHT22;41504;53.162;6.788;2022-10-19T23:21:10;8.70;84.70
55634;DHT22;41504;53.162;6.788;2022-10-19T23:23:36;8.70;84.70
55634;DHT22;41504;53.162;6.788;2022-10-19T23:26:16;8.70;84.70
55634;DHT22;41504;53.162;6.788;2022-10-19T23:28:44;8.70;84.70
55634;DHT22;41504;53.162;6.788;2022-10-19T23:31:13;8.70;84.80
55634;DHT22;41504;53.162;6.788;2022-10-19T23:33:40;8.70;84.80
55634;DHT22;41504;53.162;6.788;2022-10-19T23:36:08;8.60;84.80
55634;DHT22;41504;53.162;6.788;2022-10-19T23:38:34;8.60;84.90
55634;DHT22;41504;53.162;6.788;2022-10-19T23:41:00;8.60;84.90
55634;DHT22;41504;53.162;6.788;2022-10-19T23:43:26;8.60;85.00
55634;DHT22;41504;53.162;6.788;2022-10-19T23:45:52;8.50;85.00
55634;DHT22;41504;53.162;6.788;2022-10-19T23:48:17;8.50;85.10
55634;DHT22;41504;53.162;6.788;2022-10-19T23:50:43;8.50;85.20
55634;DHT22;41504;53.162;6.788;2022-10-19T23:53:09;8.50;85.20
55634;DHT22;41504;53.162;6.788;2022-10-19T23:55:35;8.50;85.20
55634;DHT22;41504;53.162;6.788;2022-10-19T23:58:00;8.50;85.20
